Time;durP1;ratioP1;P1;durP2;ratioP2;P2;SDS_P1;SDS_P2;PMS_P1;PMS_P2;Temp;Humidity;BMP_temperature;BMP_pressure;BME280_temperature;BME280_humidity;BME280_pressure;Samples;Min_cycle;Max_cycle;Signal;HPM_P1;HPM_P2
2023/12/07 00:02:13;;;;;;;31.70;16.27;;;6.30;68.60;;;1.02;100.00;95753.41;4987438;28;20133;-56
2023/12/07 00:04:38;;;;;;;31.20;16.40;;;6.30;68.60;;;0.98;100.00;95747.75;4985018;28;20447;-55
2023/12/07 00:07:04;;;;;;;51.50;17.13;;;6.30;68.60;;;0.89;100.00;95749.75;4985748;28;20048;-56
2023/12/07 00:09:30;;;;;;;37.40;16.27;;;6.30;68.60;;;0.90;100.00;95759.22;4982972;28;20030;-56
2023/12/07 00:11:56;;;;;;;37.22;16.92;;;6.20;68.50;;;0.89;100.00;95751.56;4986252;28;20105;-53
2023/12/07 00:14:22;;;;;;;36.78;16.75;;;6.20;68.60;;;0.85;100.00;95758.22;4983614;28;20030;-57
2023/12/07 00:16:48;;;;;;;37.75;17.13;;;6.10;68.50;;;0.81;100.00;95751.75;4989109;28;20100;-56
2023/12/07 00:19:14;;;;;;;199.13;23.55;;;6.10;68.60;;;0.81;100.00;95747.31;4979612;28;20025;-53
2023/12/07 00:21:40;;;;;;;41.35;18.35;;;6.00;68.60;;;0.78;100.00;95752.94;4980064;28;20018;-57
2023/12/07 00:24:06;;;;;;;44.08;17.92;;;6.00;68.60;;;0.77;100.00;95753.16;4980884;28;20034;-56
2023/12/07 00:26:34;;;;;;;105.57;20.60;;;6.00;68.70;;;0.74;100.00;95749.13;4984627;28;20484;-52
2023/12/07 00:28:59;;;;;;;46.78;18.95;;;6.00;68.80;;;0.71;100.00;95748.72;4986113;28;20417;-56
2023/12/07 00:31:26;;;;;;;44.17;17.60;;;5.90;68.70;;;0.67;100.00;95746.47;4979930;28;20049;-55
2023/12/07 00:33:52;;;;;;;43.35;19.13;;;5.90;68.80;;;0.66;100.00;95744.88;4985077;28;20034;-55
2023/12/07 00:36:17;;;;;;;47.50;19.20;;;5.90;68.90;;;0.63;100.00;95742.66;4992800;28;20072;-56
2023/12/07 00:38:43;;;;;;;82.18;20.67;;;5.80;68.90;;;0.61;100.00;95744.66;4983775;28;20109;-55
2023/12/07 00:41:09;;;;;;;43.85;18.20;;;5.80;68.90;;;0.58;100.00;95745.06;4985064;28;20109;-51
2023/12/07 00:43:35;;;;;;;49.10;19.27;;;5.70;69.00;;;0.52;100.00;95748.47;4980098;28;20501;-56
2023/12/07 00:46:01;;;;;;;44.38;18.27;;;5.80;69.00;;;0.55;100.00;95739.41;4988750;28;20022;-53
2023/12/07 00:48:27;;;;;;;55.92;18.70;;;5.70;69.00;;;0.54;100.00;95746.47;4986074;28;20049;-52
2023/12/07 00:50:53;;;;;;;47.53;18.70;;;5.70;69.10;;;0.55;100.00;95736.78;4991105;28;20049;-55
2023/12/07 00:53:18;;;;;;;48.20;18.60;;;5.70;69.20;;;0.56;100.00;95752.28;4983836;28;20022;-54
2023/12/07 00:55:44;;;;;;;48.97;19.25;;;5.70;69.20;;;0.59;100.00;95753.72;4987199;28;20010;-53
2023/12/07 00:58:10;;;;;;;44.58;18.45;;;5.70;69.30;;;0.57;100.00;95750.50;4988459;28;20022;-57
2023/12/07 01:00:37;;;;;;;46.88;19.50;;;5.70;69.30;;;0.56;100.00;95761.97;4985912;28;20021;-56
2023/12/07 01:03:02;;;;;;;55.85;19.80;;;5.70;69.40;;;0.58;100.00;95750.28;4987042;28;20471;-55
2023/12/07 01:05:28;;;;;;;41.78;18.52;;;5.80;69.50;;;0.59;100.00;95762.38;4983645;28;20109;-56
2023/12/07 01:07:54;;;;;;;50.83;19.40;;;5.80;69.50;;;0.53;100.00;95762.38;4983327;28;20053;-56
2023/12/07 01:10:20;;;;;;;40.25;17.40;;;5.80;69.50;;;0.56;100.00;95762.78;4991960;28;20533;-54
2023/12/07 01:12:46;;;;;;;54.28;20.60;;;5.70;69.40;;;0.58;100.00;95758.16;4981718;28;20030;-51
2023/12/07 01:15:11;;;;;;;54.13;20.17;;;5.80;69.50;;;0.59;100.00;95754.53;4991586;28;20025;-55
2023/12/07 01:17:38;;;;;;;59.65;21.45;;;5.80;69.50;;;0.61;100.00;95751.72;4981488;28;20401;-55
2023/12/07 01:20:13;;;;;;;54.08;20.35;;;5.80;69.50;;;0.60;100.00;95755.34;4986351;28;20539;-55
2023/12/07 01:22:42;;;;;;;48.97;19.48;;;5.80;69.50;;;0.56;100.00;95760.16;4983580;28;20088;-56
2023/12/07 01:25:08;;;;;;;53.05;21.42;;;5.80;69.50;;;0.59;100.00;95759.75;4985542;28;20032;-54
2023/12/07 01:27:34;;;;;;;50.33;20.40;;;5.80;69.40;;;0.62;100.00;95761.19;4987714;28;20030;-53
2023/12/07 01:30:01;;;;;;;49.97;19.65;;;5.80;70.20;;;0.62;100.00;95761.19;4988385;28;20041;-52
2023/12/07 01:32:27;;;;;;;50.22;20.23;;;5.80;69.50;;;0.64;100.00;95762.63;4987492;28;20425;-51
2023/12/07 01:34:53;;;;;;;51.05;19.15;;;5.80;69.60;;;0.62;100.00;95764.63;4986981;28;20026;-54
2023/12/07 01:37:19;;;;;;;49.72;18.60;;;5.80;69.50;;;0.63;100.00;95770.69;4988268;28;20044;-55
2023/12/07 01:39:45;;;;;;;42.03;18.27;;;5.80;69.50;;;0.58;100.00;95773.88;4988462;28;20026;-52
2023/12/07 01:42:12;;;;;;;45.33;19.38;;;5.80;69.50;;;0.59;100.00;95767.63;4984527;28;20104;-56
2023/12/07 01:49:35;;;;;;;47.00;19.20;;;5.80;69.40;;;0.58;100.00;95781.75;4967536;28;20037;-53
2023/12/07 01:53:18;;;;;;;46.45;17.65;;;5.80;69.40;;;0.60;100.00;95781.56;4939324;29;20050;-55
2023/12/07 01:56:23;;;;;;;49.25;18.23;;;5.80;69.50;;;0.58;100.00;95776.50;4971154;28;20096;-51
2023/12/07 02:00:03;;;;;;;91.13;21.50;;;5.70;69.50;;;0.54;100.00;95780.53;4989072;28;20038;-51
2023/12/07 02:03:38;;;;;;;48.00;19.15;;;5.70;69.40;;;0.51;100.00;95780.94;4977510;28;20029;-55
2023/12/07 02:07:07;;;;;;;49.55;19.77;;;5.70;69.40;;;0.46;100.00;95776.25;4937528;28;20527;-52
2023/12/07 02:10:58;;;;;;;;;;;;;;;;;;;;;
2023/12/07 02:14:34;;;;;;;;;;;;;;;;;;;;;
2023/12/07 02:18:26;;;;;;;50.38;18.65;;;5.60;69.50;;;0.31;100.00;95770.34;4976365;28;20041;-54
2023/12/07 02:22:15;;;;;;;44.42;18.25;;;5.50;69.30;;;0.29;100.00;95759.28;4985015;28;20431;-49
2023/12/07 02:25:49;;;;;;;54.67;20.67;;;5.50;69.30;;;0.25;100.00;95763.28;4968055;28;20137;-50
2023/12/07 02:28:59;;;;;;;55.10;21.27;;;5.30;69.10;;;0.17;100.00;95766.88;4978234;28;20038;-51
2023/12/07 02:32:27;;;;;;;55.33;20.48;;;5.30;69.20;;;0.07;100.00;95771.69;4938630;28;20093;-48
2023/12/07 02:36:06;;;;;;;61.53;20.10;;;5.20;69.30;;;-0.05;100.00;95771.41;4943704;28;20035;-48
2023/12/07 02:45:59;;;;;;;50.65;20.92;;;4.90;69.50;;;-0.09;100.00;95785.91;4976801;28;20133;-49
2023/12/07 02:49:40;;;;;;;61.38;21.40;;;4.90;69.90;;;-0.14;100.00;95790.09;4984751;28;20054;-50
2023/12/07 02:56:29;;;;;;;76.55;22.90;;;4.90;70.10;;;-0.16;100.00;95790.25;4910925;29;20036;-50
2023/12/07 02:59:10;;;;;;;154.60;27.00;;;4.90;70.30;;;-0.17;100.00;95786.03;4973198;28;20108;-52
2023/12/07 03:02:02;;;;;;;;;;;;;;;;;;;;;
2023/12/07 03:04:45;;;;;;;110.18;26.10;;;4.90;70.40;;;0.02;100.00;95781.09;4991443;28;20554;-50
2023/12/07 03:07:30;;;;;;;263.33;29.80;;;5.00;70.50;;;0.06;100.00;95777.09;4990253;28;20026;-54
2023/12/07 03:10:13;;;;;;;85.13;24.38;;;5.10;70.50;;;0.07;100.00;95776.13;4990308;28;20120;-50
2023/12/07 03:12:45;;;;;;;;;;;5.10;70.40;;;0.10;100.00;95776.53;4991410;28;20541;-49
2023/12/07 03:16:08;;;;;;;76.10;23.10;;;5.20;70.30;;;0.14;100.00;95774.31;4991247;28;19905;-48
2023/12/07 03:18:44;;;;;;;74.72;23.55;;;5.20;70.30;;;0.14;100.00;95769.09;4990631;28;20591;-49
2023/12/07 03:21:27;;;;;;;67.80;21.63;;;5.20;70.30;;;0.11;100.00;95766.84;4984328;28;20112;-49
2023/12/07 03:23:55;;;;;;;;;;;5.20;70.20;;;0.09;100.00;95769.66;4986225;28;20034;-48
2023/12/07 03:26:42;;;;;;;72.75;21.75;;;5.20;70.00;;;0.04;100.00;95764.22;4985373;28;19959;-49
2023/12/07 03:29:26;;;;;;;53.08;19.42;;;5.20;69.80;;;0.03;100.00;95769.63;4970318;28;20037;-50
2023/12/07 03:31:52;;;;;;;47.55;19.27;;;5.10;69.60;;;-0.03;100.00;95768.63;4983332;28;20586;-51
2023/12/07 03:35:05;;;;;;;48.50;18.70;;;5.10;69.80;;;-0.09;100.00;95766.75;4982755;28;20097;-49
2023/12/07 03:37:55;;;;;;;52.13;20.05;;;5.10;69.40;;;-0.15;100.00;95770.94;4987389;28;20388;-52
2023/12/07 03:40:27;;;;;;;52.30;20.20;;;5.00;69.50;;;-0.17;100.00;95772.94;4970024;28;20041;-49
2023/12/07 03:43:00;;;;;;;50.38;20.73;;;4.90;69.50;;;-0.21;100.00;95768.31;4983265;28;20476;-50
2023/12/07 03:46:00;;;;;;;47.17;18.95;;;4.90;69.60;;;-0.27;100.00;95770.69;4985360;28;20033;-52
2023/12/07 03:48:31;;;;;;;51.28;18.75;;;4.80;69.50;;;-0.42;100.00;95769.16;4975801;28;20056;-52
2023/12/07 03:51:05;;;;;;;42.80;16.27;;;4.70;69.40;;;-0.57;100.00;95767.44;4981611;28;20484;-50
2023/12/07 03:53:46;;;;;;;52.53;20.38;;;4.70;69.40;;;-0.61;100.00;95768.81;4967680;28;20033;-50
2023/12/07 03:56:40;;;;;;;52.33;19.45;;;4.60;69.40;;;-0.73;100.00;95767.72;4984659;28;20017;-53
2023/12/07 03:59:09;;;;;;;48.20;18.73;;;4.50;69.30;;;-0.74;100.00;95766.13;4986894;28;20026;-50
2023/12/07 04:01:41;;;;;;;44.10;17.63;;;4.50;69.50;;;-0.72;100.00;95767.56;4972171;28;20108;-49
2023/12/07 04:04:18;;;;;;;43.22;18.13;;;4.40;69.40;;;-0.76;100.00;95773.34;4962777;28;20402;-53
2023/12/07 04:06:52;;;;;;;48.03;18.63;;;4.30;69.40;;;-0.82;100.00;95771.47;4984715;28;20029;-54
2023/12/07 04:09:30;;;;;;;55.33;20.13;;;4.30;69.40;;;-0.91;100.00;95770.78;4984102;28;20025;-51
2023/12/07 04:12:02;;;;;;;58.97;21.83;;;4.20;69.40;;;-0.93;100.00;95771.00;4990229;28;20018;-52
2023/12/07 04:14:28;;;;;;;54.28;21.20;;;4.20;69.50;;;-0.94;100.00;95771.16;4987780;28;20044;-53
2023/12/07 04:17:00;;;;;;;48.15;17.02;;;4.10;69.60;;;-0.99;100.00;95774.34;4986094;28;20032;-49
2023/12/07 04:19:32;;;;;;;90.38;21.85;;;4.10;69.70;;;-1.03;100.00;95780.16;4979525;28;20036;-49
2023/12/07 04:22:11;;;;;;;48.28;18.33;;;4.10;69.70;;;-1.07;100.00;95787.53;4977756;28;20030;-53
2023/12/07 04:24:37;;;;;;;55.63;18.55;;;4.00;69.70;;;-1.16;100.00;95775.59;4979770;28;20390;-49
2023/12/07 04:27:03;;;;;;;45.75;17.98;;;4.00;69.60;;;-1.20;100.00;95783.00;4981319;28;20076;-54
2023/12/07 04:29:29;;;;;;;56.15;21.05;;;4.00;69.50;;;-1.25;100.00;95785.38;4987532;28;20032;-52
2023/12/07 04:31:55;;;;;;;74.60;21.77;;;3.90;69.50;;;-1.27;100.00;95786.56;4988324;28;20021;-50
2023/12/07 04:34:21;;;;;;;75.45;21.92;;;3.90;69.60;;;-1.31;100.00;95790.53;4988070;28;20064;-52
2023/12/07 04:36:46;;;;;;;103.18;21.95;;;3.90;69.70;;;-1.34;100.00;95788.28;4996805;28;20113;-55
2023/12/07 04:39:12;;;;;;;78.40;23.10;;;3.80;69.60;;;-1.40;100.00;95790.66;5002889;28;20045;-48
2023/12/07 04:41:38;;;;;;;118.15;23.13;;;3.70;70.40;;;-1.43;100.00;95785.78;4984017;28;20032;-53
2023/12/07 04:44:04;;;;;;;72.07;22.27;;;3.70;69.80;;;-1.47;100.00;95779.31;4982209;28;20039;-50
2023/12/07 04:46:30;;;;;;;107.80;23.17;;;3.70;69.80;;;-1.45;100.00;95784.34;4980310;28;20021;-49
2023/12/07 04:48:56;;;;;;;66.50;21.00;;;3.70;69.90;;;-1.46;100.00;95782.72;4985967;28;20033;-52
2023/12/07 04:51:22;;;;;;;69.03;21.15;;;3.70;70.00;;;-1.48;100.00;95776.88;4988228;28;20021;-48
2023/12/07 04:53:47;;;;;;;60.50;19.98;;;3.60;69.90;;;-1.52;100.00;95773.81;4980118;28;20026;-50
2023/12/07 04:56:13;;;;;;;77.65;20.83;;;3.70;70.00;;;-1.56;100.00;95775.19;4988838;28;20357;-51
2023/12/07 04:58:39;;;;;;;59.38;19.25;;;3.60;70.00;;;-1.59;100.00;95779.97;4979000;28;20026;-49
2023/12/07 05:01:05;;;;;;;63.47;19.45;;;3.60;69.90;;;-1.63;100.00;95772.50;4980634;28;20034;-48
2023/12/07 05:03:32;;;;;;;75.68;21.50;;;3.60;69.90;;;-1.66;100.00;95779.88;4986644;28;20041;-48
2023/12/07 05:05:58;;;;;;;187.95;24.17;;;3.50;69.80;;;-1.69;100.00;95772.44;4979972;28;20026;-49
2023/12/07 05:08:24;;;;;;;59.67;18.92;;;3.50;69.80;;;-1.73;100.00;95771.97;4987922;28;20022;-47
2023/12/07 05:10:50;;;;;;;62.85;19.55;;;3.50;69.80;;;-1.75;100.00;95768.75;4981706;28;20058;-49
2023/12/07 05:13:16;;;;;;;63.65;20.05;;;3.50;69.80;;;-1.80;100.00;95771.09;4988143;28;20088;-50
2023/12/07 05:15:42;;;;;;;65.13;20.85;;;3.40;69.90;;;-1.79;100.00;95766.66;4988715;28;20025;-52
2023/12/07 05:18:07;;;;;;;72.53;19.98;;;3.40;70.10;;;-1.82;100.00;95770.44;4987034;28;20057;-52
2023/12/07 05:20:34;;;;;;;79.63;20.00;;;3.40;70.20;;;-1.83;100.00;95773.25;4981161;28;20033;-47
2023/12/07 05:22:59;;;;;;;69.93;20.15;;;3.40;70.10;;;-1.83;100.00;95773.25;4986872;28;20053;-52
2023/12/07 05:25:25;;;;;;;50.85;18.38;;;3.40;70.10;;;-1.86;100.00;95771.81;4988795;28;20045;-48
2023/12/07 05:27:51;;;;;;;76.97;19.17;;;3.40;70.10;;;-1.90;100.00;95774.00;4981482;28;20096;-50
2023/12/07 05:30:17;;;;;;;52.78;18.88;;;3.40;70.00;;;-1.97;100.00;95770.50;4984581;28;20022;-47
2023/12/07 05:32:43;;;;;;;62.60;17.48;;;3.30;70.00;;;-1.93;100.00;95760.50;4977953;28;20508;-50
2023/12/07 05:35:09;;;;;;;45.20;16.27;;;3.30;69.90;;;-1.92;100.00;95769.94;4987419;28;20579;-47
2023/12/07 05:37:34;;;;;;;66.07;17.35;;;3.30;69.90;;;-1.96;100.00;95772.09;4989840;28;20034;-49
2023/12/07 05:40:00;;;;;;;281.85;26.38;;;3.20;69.90;;;-1.92;100.00;95769.94;4981153;28;20030;-47
2023/12/07 05:42:26;;;;;;;398.27;33.15;;;3.20;70.00;;;-1.91;100.00;95764.53;4985339;28;20219;-47
2023/12/07 05:44:52;;;;;;;485.20;30.60;;;3.20;70.00;;;-2.05;100.00;95767.16;4981586;28;20030;-46
2023/12/07 05:47:18;;;;;;;395.20;28.58;;;3.20;70.10;;;-2.07;100.00;95764.72;4987598;28;20018;-46
2023/12/07 05:49:44;;;;;;;645.22;38.03;;;3.20;70.00;;;-2.12;100.00;95767.06;4984672;28;20018;-48
2023/12/07 05:52:09;;;;;;;332.20;24.15;;;3.20;69.90;;;-2.21;100.00;95766.34;4985111;28;20258;-46
2023/12/07 05:54:35;;;;;;;247.75;25.33;;;3.10;69.80;;;-2.21;100.00;95768.97;4984149;28;20029;-46
2023/12/07 05:57:02;;;;;;;288.38;23.73;;;3.10;69.70;;;-2.29;100.00;95766.44;4987102;28;20053;-47
2023/12/07 05:59:27;;;;;;;350.17;25.83;;;3.00;69.70;;;-2.53;100.00;95762.28;4982271;28;20026;-48
2023/12/07 06:01:53;;;;;;;43.95;14.55;;;3.00;69.70;;;-2.54;100.00;95765.06;4986106;28;20353;-46
2023/12/07 06:04:19;;;;;;;52.60;15.95;;;2.90;69.60;;;-2.45;100.00;95770.03;4989081;28;20176;-47
2023/12/07 06:06:45;;;;;;;102.78;17.27;;;2.90;69.70;;;-2.43;100.00;95773.28;4981139;28;20026;-56
2023/12/07 06:09:11;;;;;;;302.13;24.20;;;2.80;69.80;;;-2.37;100.00;95763.94;4980848;28;20026;-46
2023/12/07 06:11:37;;;;;;;287.83;24.80;;;2.90;70.00;;;-2.34;100.00;95764.38;4976333;28;20056;-49
2023/12/07 06:14:06;;;;;;;252.55;24.10;;;2.90;70.10;;;-2.29;100.00;95770.84;4985659;28;20224;-46
2023/12/07 06:16:32;;;;;;;221.68;23.45;;;2.80;70.10;;;-2.29;100.00;95766.44;4987433;28;20014;-46
2023/12/07 06:18:58;;;;;;;221.73;23.70;;;2.80;70.20;;;-2.29;100.00;95766.44;4981216;28;20050;-48
2023/12/07 06:21:25;;;;;;;196.68;23.52;;;2.80;71.00;;;-2.28;100.00;95762.03;4988277;28;20116;-50
2023/12/07 06:23:51;;;;;;;126.05;18.98;;;2.90;70.30;;;-2.30;100.00;95762.22;4977711;28;20061;-54
2023/12/07 06:26:17;;;;;;;201.13;21.25;;;2.80;70.30;;;-2.37;100.00;95762.13;4982849;28;20018;-46
2023/12/07 06:28:42;;;;;;;257.75;25.25;;;2.80;70.30;;;-2.36;100.00;95765.53;4986634;28;20125;-50
2023/12/07 06:31:09;;;;;;;107.45;17.52;;;2.80;70.20;;;-2.36;100.00;95765.53;4984467;28;20026;-47
2023/12/07 06:33:35;;;;;;;62.75;16.77;;;2.80;70.30;;;-2.49;100.00;95773.19;4985277;28;20632;-46
2023/12/07 06:36:03;;;;;;;97.85;18.20;;;2.80;70.30;;;-2.43;100.00;95772.47;4988044;28;20120;-46
2023/12/07 06:38:29;;;;;;;135.27;18.25;;;2.70;70.20;;;-2.41;100.00;95773.91;4987566;28;20109;-49
2023/12/07 06:40:56;;;;;;;112.80;18.92;;;2.70;70.30;;;-2.39;100.00;95777.13;4987589;28;20032;-51
2023/12/07 06:43:22;;;;;;;206.13;21.77;;;2.70;70.40;;;-2.38;100.00;95772.75;4985954;28;20511;-51
2023/12/07 06:45:48;;;;;;;362.08;26.67;;;2.80;70.50;;;-2.36;100.00;95770.75;4988005;28;20377;-51
2023/12/07 06:48:14;;;;;;;231.95;22.85;;;2.70;70.50;;;-2.33;100.00;95770.41;4983485;28;20036;-47
2023/12/07 06:50:40;;;;;;;237.30;23.77;;;2.80;70.70;;;-2.30;100.00;95774.44;4987676;28;20056;-46
2023/12/07 06:53:06;;;;;;;242.27;23.15;;;2.80;70.70;;;-2.25;100.00;95783.38;4986280;28;20084;-46
2023/12/07 06:55:31;;;;;;;245.43;24.20;;;2.80;70.80;;;-2.22;100.00;95784.81;4981089;28;20483;-47
2023/12/07 06:57:57;;;;;;;301.92;27.02;;;2.90;70.90;;;-2.21;100.00;95784.63;4988516;28;20030;-45
2023/12/07 07:00:24;;;;;;;276.42;25.45;;;2.90;70.90;;;-2.15;100.00;95786.50;4988469;28;20032;-46
2023/12/07 07:02:50;;;;;;;353.98;28.77;;;3.00;71.10;;;-2.05;100.00;95788.84;4984718;28;20547;-47
2023/12/07 07:05:16;;;;;;;364.88;26.27;;;3.00;71.20;;;-2.00;100.00;95783.09;4987386;28;20025;-45
2023/12/07 07:07:42;;;;;;;291.90;24.98;;;3.10;71.30;;;-1.94;100.00;95790.22;4982787;28;20030;-45
2023/12/07 07:10:12;;;;;;;344.02;25.35;;;3.20;71.30;;;-1.86;100.00;95790.91;4983654;28;20021;-48
2023/12/07 07:12:38;;;;;;;312.05;28.17;;;3.20;71.30;;;-1.77;100.00;95793.44;4985382;28;20113;-46
2023/12/07 07:15:07;;;;;;;352.08;27.73;;;3.30;72.10;;;-1.70;100.00;95783.84;4984315;28;20033;-46
2023/12/07 07:17:33;;;;;;;423.40;29.40;;;3.40;71.30;;;-1.64;100.00;95786.53;4965243;28;32473;-46
2023/12/07 07:19:59;;;;;;;243.85;21.98;;;3.50;71.30;;;-1.59;100.00;95788.63;4982610;28;20021;-48
2023/12/07 07:22:24;;;;;;;540.17;34.60;;;3.60;71.20;;;-1.57;100.00;95781.41;4978828;28;20025;-48
2023/12/07 07:24:50;;;;;;;509.65;32.53;;;3.70;71.20;;;-1.54;100.00;95778.41;4985704;28;20041;-47
2023/12/07 07:27:16;;;;;;;516.00;32.47;;;3.70;71.10;;;-1.52;100.00;95781.66;4987127;28;20191;-46
2023/12/07 07:29:43;;;;;;;274.85;22.55;;;3.70;71.00;;;-1.46;100.00;95780.94;4981807;28;20547;-49
2023/12/07 07:32:09;;;;;;;349.83;24.83;;;3.80;70.90;;;-1.38;100.00;95782.59;4988918;28;20022;-49
2023/12/07 07:34:34;;;;;;;321.45;25.00;;;3.80;70.90;;;-1.33;100.00;95787.28;5000131;28;20518;-46
2023/12/07 07:37:00;;;;;;;363.20;25.60;;;3.90;70.90;;;-1.29;100.00;95783.31;4978083;28;20121;-50
2023/12/07 07:39:26;;;;;;;342.85;24.20;;;3.90;70.90;;;-1.26;100.00;95778.50;4986315;28;20477;-47
2023/12/07 07:41:52;;;;;;;376.70;26.73;;;4.00;70.90;;;-1.31;100.00;95772.25;4986849;28;20048;-47
2023/12/07 07:44:18;;;;;;;427.83;27.25;;;4.00;70.70;;;-1.33;100.00;95775.03;4986094;28;20091;-47
2023/12/07 07:46:43;;;;;;;339.05;25.02;;;4.10;70.60;;;-1.34;100.00;95764.78;4984510;28;20025;-46
2023/12/07 07:49:09;;;;;;;277.50;22.90;;;4.10;70.50;;;-1.38;100.00;95761.69;4980558;28;20937;-50
2023/12/07 07:51:35;;;;;;;408.40;25.80;;;4.20;70.50;;;-1.41;100.00;95764.69;4990229;28;20033;-48
2023/12/07 07:54:01;;;;;;;316.52;23.45;;;4.10;70.30;;;-1.44;100.00;95757.25;4982889;28;20033;-52
2023/12/07 07:56:27;;;;;;;314.90;23.40;;;4.20;70.30;;;-1.39;100.00;95760.09;4989005;28;20180;-54
2023/12/07 07:58:53;;;;;;;375.10;25.77;;;4.20;70.30;;;-1.35;100.00;95761.31;4981059;28;20034;-52
2023/12/07 08:01:18;;;;;;;431.92;27.77;;;4.20;70.30;;;-1.34;100.00;95757.75;4977617;28;20375;-53
2023/12/07 08:03:44;;;;;;;503.38;33.85;;;4.20;70.30;;;-1.35;100.00;95766.56;4983475;28;20385;-47
2023/12/07 08:06:10;;;;;;;381.20;26.27;;;4.20;70.30;;;-1.31;100.00;95769.63;4984406;28;20033;-52
2023/12/07 08:08:36;;;;;;;424.80;29.05;;;4.30;70.30;;;-1.26;100.00;95768.06;4996611;28;20021;-52
2023/12/07 08:11:02;;;;;;;773.17;49.63;;;4.30;70.30;;;-1.13;100.00;95771.78;4988448;28;20075;-45
2023/12/07 08:13:27;;;;;;;334.30;24.77;;;4.30;70.30;;;-1.02;100.00;95777.34;4984112;28;20128;-47
2023/12/07 08:15:54;;;;;;;379.40;25.25;;;4.40;70.40;;;-1.01;100.00;95773.72;4987942;28;20112;-47
2023/12/07 08:18:20;;;;;;;554.92;33.20;;;4.60;70.40;;;-0.98;100.00;95768.13;4986479;28;20061;-50
2023/12/07 08:20:46;;;;;;;433.65;28.13;;;4.60;70.30;;;-1.03;100.00;95767.09;4985513;28;20021;-46
2023/12/07 08:23:12;;;;;;;428.60;25.73;;;4.70;70.10;;;-1.07;100.00;95771.84;4983361;28;20038;-46
2023/12/07 08:25:40;;;;;;;356.00;25.25;;;4.70;69.90;;;-1.03;100.00;95772.31;4982874;28;20045;-45
2023/12/07 08:28:09;;;;;;;470.63;29.30;;;4.80;69.80;;;-0.93;100.00;95762.34;4983122;28;20531;-48
2023/12/07 08:30:35;;;;;;;470.33;26.02;;;4.90;69.80;;;-0.81;100.00;95765.25;4987695;28;20036;-47
2023/12/07 08:33:02;;;;;;;448.20;26.08;;;5.00;69.80;;;-0.74;100.00;95766.91;4978991;28;20017;-46
2023/12/07 08:35:27;;;;;;;218.57;18.98;;;5.00;69.80;;;-0.67;100.00;95766.97;4995760;28;20032;-46
2023/12/07 08:37:54;;;;;;;296.73;22.33;;;5.10;69.80;;;-0.70;100.00;95762.13;4988312;28;20017;-45
2023/12/07 08:40:19;;;;;;;267.42;20.50;;;5.20;69.70;;;-0.60;100.00;95759.16;4982129;28;20377;-45
2023/12/07 08:42:48;;;;;;;272.27;20.73;;;5.20;69.50;;;-0.56;100.00;95756.00;4989053;28;20033;-52
2023/12/07 08:45:14;;;;;;;340.88;22.42;;;5.20;69.50;;;-0.64;100.00;95757.94;4980852;28;20026;-45
2023/12/07 08:47:41;;;;;;;375.63;26.40;;;5.30;69.40;;;-0.59;100.00;95753.75;4981269;28;20510;-49
2023/12/07 08:50:09;;;;;;;556.08;32.55;;;5.30;69.30;;;-0.55;100.00;95744.53;4978205;28;20026;-45
2023/12/07 08:52:35;;;;;;;426.02;24.33;;;5.40;69.30;;;-0.48;100.00;95749.78;4984572;28;20037;-46
2023/12/07 08:55:01;;;;;;;428.30;25.10;;;5.40;69.20;;;-0.39;100.00;95748.66;4986265;28;20029;-46
2023/12/07 08:57:27;;;;;;;366.60;22.98;;;5.50;69.30;;;-0.35;100.00;95738.59;4984144;28;20068;-46
2023/12/07 08:59:54;;;;;;;419.35;27.05;;;5.50;69.10;;;-0.32;100.00;95748.69;4984962;28;20029;-48
2023/12/07 09:02:20;;;;;;;405.27;25.52;;;5.60;69.10;;;-0.32;100.00;95746.88;4987478;28;20026;-46
2023/12/07 09:04:46;;;;;;;375.17;25.60;;;5.60;69.00;;;-0.27;100.00;95747.13;4989274;28;20462;-46
2023/12/07 09:07:15;;;;;;;331.67;24.02;;;5.60;68.90;;;-0.26;100.00;95759.19;4982807;28;20025;-47
2023/12/07 09:09:46;;;;;;;307.33;21.20;;;5.70;69.00;;;-0.41;100.00;95771.56;4985643;28;20018;-47
2023/12/07 09:12:14;;;;;;;428.20;25.42;;;5.60;68.70;;;-0.43;100.00;95776.22;4993254;28;20032;-48
2023/12/07 09:14:40;;;;;;;312.02;20.42;;;5.70;68.70;;;-0.32;100.00;95782.72;4990493;28;20034;-49
2023/12/07 09:17:06;;;;;;;234.93;18.00;;;5.70;68.60;;;-0.25;100.00;95783.59;4989036;28;20072;-50
2023/12/07 09:19:32;;;;;;;330.25;21.33;;;5.80;68.60;;;-0.36;100.00;95787.53;4984900;28;20025;-46
2023/12/07 09:21:58;;;;;;;291.15;19.63;;;5.80;68.50;;;-0.37;100.00;95777.25;4988266;28;20126;-45
2023/12/07 09:24:24;;;;;;;200.63;16.67;;;5.90;68.40;;;-0.39;100.00;95766.16;4992200;28;20041;-46
2023/12/07 09:26:50;;;;;;;128.88;15.40;;;6.00;68.30;;;-0.27;100.00;95741.88;4985873;28;20088;-50
2023/12/07 09:29:16;;;;;;;113.70;14.23;;;6.20;68.20;;;-0.11;100.00;95743.38;4990210;28;20390;-46
2023/12/07 09:31:42;;;;;;;84.95;13.88;;;6.30;68.10;;;-0.01;100.00;95740.41;4981108;28;20018;-52
2023/12/07 09:34:08;;;;;;;123.70;14.77;;;6.50;68.00;;;0.08;100.00;95728.75;4990127;28;20508;-51
2023/12/07 09:36:34;;;;;;;70.00;13.40;;;6.60;67.70;;;0.10;100.00;95734.63;4987216;28;20041;-51
2023/12/07 09:39:00;;;;;;;43.72;14.00;;;6.70;67.50;;;0.10;100.00;95736.44;4990066;28;20030;-50
2023/12/07 09:41:28;;;;;;;47.35;13.07;;;6.80;67.20;;;0.05;100.00;95734.38;4991986;28;20030;-52
2023/12/07 09:43:55;;;;;;;49.20;13.13;;;6.80;66.90;;;0.06;100.00;95741.22;4984957;28;20580;-49
2023/12/07 09:46:21;;;;;;;69.82;13.82;;;6.90;66.70;;;0.01;100.00;95746.25;4989132;28;20018;-47
2023/12/07 09:48:49;;;;;;;79.07;16.17;;;6.80;66.50;;;-0.02;100.00;95738.78;4987985;28;20396;-50
2023/12/07 09:51:16;;;;;;;78.32;14.90;;;6.70;66.40;;;-0.15;100.00;95736.91;4987899;28;20076;-55
2023/12/07 09:53:45;;;;;;;78.32;13.70;;;6.60;66.30;;;-0.22;100.00;95737.88;4986970;28;20025;-49
2023/12/07 09:56:10;;;;;;;58.53;15.80;;;6.40;66.30;;;-0.27;100.00;95741.88;4986006;28;20032;-51
2023/12/07 09:58:39;;;;;;;98.35;17.55;;;6.30;66.30;;;-0.32;100.00;95732.97;5006659;28;20034;-53
2023/12/07 10:01:05;;;;;;;53.40;14.85;;;6.20;66.50;;;-0.23;100.00;95718.72;4979702;28;20061;-51
2023/12/07 10:03:31;;;;;;;66.65;16.23;;;6.10;66.60;;;-0.17;100.00;95725.00;4988344;28;20433;-50
2023/12/07 10:06:01;;;;;;;76.32;16.25;;;6.10;67.00;;;-0.11;100.00;95732.91;4989935;28;20104;-46
2023/12/07 10:08:32;;;;;;;62.60;15.20;;;6.10;67.20;;;-0.01;100.00;95722.88;4992232;28;20026;-49
2023/12/07 10:11:24;;;;;;;47.17;14.80;;;6.20;67.30;;;0.03;100.00;95715.41;4992719;28;20369;-49
2023/12/07 10:13:50;;;;;;;38.38;13.90;;;6.30;67.30;;;0.08;100.00;95713.03;4990862;28;20029;-49
2023/12/07 10:16:17;;;;;;;42.42;15.32;;;6.40;68.20;;;0.10;100.00;95705.00;4984459;28;20025;-49
2023/12/07 10:18:43;;;;;;;41.63;14.30;;;6.50;67.50;;;0.25;100.00;95704.81;4991701;28;20029;-47
2023/12/07 10:21:10;;;;;;;36.15;14.68;;;6.60;67.50;;;0.29;100.00;95693.78;4987977;28;20069;-52
2023/12/07 10:23:47;;;;;;;36.75;14.02;;;6.80;67.50;;;0.38;100.00;95681.31;4990412;28;20366;-54
2023/12/07 10:26:13;;;;;;;29.92;13.30;;;7.00;67.50;;;0.43;100.00;95674.44;4991519;28;20105;-47
2023/12/07 10:28:39;;;;;;;34.00;14.15;;;7.20;67.30;;;0.52;100.00;95669.00;4992370;28;20132;-48
2023/12/07 10:31:12;;;;;;;36.30;14.05;;;7.30;67.20;;;0.62;100.00;95664.19;4990146;28;20029;-49
2023/12/07 10:33:38;;;;;;;44.60;13.80;;;7.40;67.00;;;0.55;100.00;95666.81;4991320;28;20105;-49
2023/12/07 10:36:05;;;;;;;36.03;14.40;;;7.40;66.70;;;0.46;100.00;95663.56;4992020;28;20634;-48
2023/12/07 10:38:32;;;;;;;42.72;14.88;;;7.40;66.40;;;0.45;100.00;95663.78;4989864;28;20380;-49
2023/12/07 10:41:07;;;;;;;35.90;15.07;;;7.40;66.20;;;0.44;100.00;95660.34;4992556;28;20115;-48
2023/12/07 10:43:42;;;;;;;33.95;15.25;;;7.50;66.10;;;0.37;100.00;95661.31;4984494;28;20029;-51
2023/12/07 10:46:12;;;;;;;35.97;14.90;;;7.50;65.90;;;0.33;100.00;95662.72;4985094;28;20132;-50
2023/12/07 10:48:41;;;;;;;33.42;14.85;;;7.50;65.80;;;0.40;100.00;95666.16;4987609;28;20116;-51